Time;durP1;ratioP1;P1;durP2;ratioP2;P2;SDS_P1;SDS_P2;PMS_P1;PMS_P2;Temp;Humidity;BMP_temperature;BMP_pressure;BME280_temperature;BME280_humidity;BME280_pressure;Samples;Min_cycle;Max_cycle;Signal;HPM_P1;HPM_P2
2022/06/01 00:01:35;;;;;;;;;;;;;;;11.71;77.57;98759.48;4231636;82;20153;-85
2022/06/01 00:07:49;;;;;;;;;;;;;;;11.65;77.63;98762.38;4190266;82;20177;-85
2022/06/01 00:14:06;;;;;;;;;;;;;;;11.67;78.29;98770.21;4234831;82;20150;-85
2022/06/01 00:20:22;;;;;;;;;;;;;;;11.65;78.12;98767.09;4222859;82;20173;-85
2022/06/01 00:26:23;;;;;;;;;;;;;;;11.56;78.04;98759.19;4226461;82;20193;-85
2022/06/01 00:32:29;;;;;;;;;;;;;;;11.61;78.14;98763.51;4233622;82;20492;-85
2022/06/01 00:38:30;;;;;;;;;;;;;;;11.59;75.98;98759.02;4233721;82;20152;-85
2022/06/01 01:18:17;;;;;;;;;;;;;;;11.54;80.13;98761.52;4186554;81;20587;-85
2022/06/01 01:31:27;;;;;;;;;;;;;;;11.56;80.31;98757.82;4195862;83;20124;-85
2022/06/01 01:45:07;;;;;;;;;;;;;;;11.53;81.09;98744.89;4221956;84;20118;-85
2022/06/01 01:51:29;;;;;;;;;;;;;;;11.61;82.08;98752.55;4235107;81;20128;-85
2022/06/01 02:18:01;;;;;;;;;;;;;;;11.81;81.95;98757.34;4287888;81;20332;-87
2022/06/01 02:24:10;;;;;;;;;;;;;;;11.79;81.42;98756.17;4295356;81;20144;-87
2022/06/01 02:30:25;;;;;;;;;;;;;;;11.89;82.03;98752.06;4309025;81;20140;-87
2022/06/01 02:36:45;;;;;;;;;;;;;;;11.79;80.54;98751.45;4320798;81;20106;-87
2022/06/01 02:49:26;;;;;;;;;;;;;;;11.91;82.07;98760.70;4327749;81;20140;-86
2022/06/01 02:55:38;;;;;;;;;;;;;;;11.93;82.52;98776.16;4261133;82;20127;-87
2022/06/01 03:01:39;;;;;;;;;;;;;;;11.96;82.47;98800.09;4196183;83;20330;-87
2022/06/01 03:08:04;;;;;;;;;;;;;;;11.99;82.60;98801.27;4213797;83;20154;-87
2022/06/01 03:14:05;;;;;;;;;;;;;;;11.96;82.28;98811.08;4226775;83;20146;-87
2022/06/01 03:27:48;;;;;;;;;;;;;;;11.86;81.92;98833.76;4126599;84;20425;-88
2022/06/01 03:33:49;;;;;;;;;;;;;;;11.99;82.24;98847.33;4236495;82;20162;-88
2022/06/01 03:39:50;;;;;;;;;;;;;;;12.04;82.67;98847.53;4257407;82;20216;-87
2022/06/01 03:46:29;;;;;;;;;;;;;;;12.08;82.75;98839.51;4273891;82;20528;-85
2022/06/01 03:53:02;;;;;;;;;;;;;;;12.19;82.91;98855.41;4236991;82;20152;-85
2022/06/01 04:05:31;;;;;;;;;;;;;;;12.33;82.96;98867.00;4209734;83;20186;-85
2022/06/01 04:11:42;;;;;;;;;;;;;;;12.36;82.84;98871.13;4168742;83;20157;-86
2022/06/01 04:17:57;;;;;;;;;;;;;;;12.45;83.02;98849.56;4235803;83;20418;-85
2022/06/01 04:24:41;;;;;;;;;;;;;;;12.54;82.58;98871.93;4028154;85;20124;-85
2022/06/01 04:31:36;;;;;;;;;;;;;;;12.79;83.24;98862.94;4004835;87;20473;-85
2022/06/01 04:37:38;;;;;;;;;;;;;;;12.96;82.46;98862.14;3959505;89;20456;-86
2022/06/01 04:43:39;;;;;;;;;;;;;;;13.10;81.79;98864.91;4105338;86;20109;-85
2022/06/01 04:49:43;;;;;;;;;;;;;;;13.21;82.55;98887.67;4127411;84;21028;-87
2022/06/01 04:55:45;;;;;;;;;;;;;;;13.33;81.13;98892.75;4140620;83;23570;-85
2022/06/01 05:01:55;;;;;;;;;;;;;;;13.50;82.05;98875.45;4152330;84;20125;-85
2022/06/01 05:08:32;;;;;;;;;;;;;;;13.65;82.61;98862.64;4103598;84;20125;-85
2022/06/01 05:15:01;;;;;;;;;;;;;;;13.80;82.48;98849.59;4218455;84;20118;-85
2022/06/01 05:21:45;;;;;;;;;;;;;;;14.03;81.93;98888.44;4135652;85;20150;-85
2022/06/01 05:27:50;;;;;;;;;;;;;;;14.26;82.71;98875.56;4085108;85;20123;-85
2022/06/01 05:33:57;;;;;;;;;;;;;;;14.45;82.38;98885.48;4078840;86;20170;-84
2022/06/01 06:00:16;;;;;;;;;;;;;;;14.93;81.49;98857.97;4077172;86;20168;-85
2022/06/01 06:06:54;;;;;;;;;;;;;;;15.07;81.16;98853.70;3968868;88;20154;-86
2022/06/01 06:12:57;;;;;;;;;;;;;;;15.28;81.14;98865.34;3971921;88;20337;-86
2022/06/01 06:25:34;;;;;;;;;;;;;;;15.59;80.59;98891.84;4073900;86;20145;-87
2022/06/01 06:31:36;;;;;;;;;;;;;;;15.71;80.10;98887.75;4061311;86;20726;-87
2022/06/01 06:37:37;;;;;;;;;;;;;;;15.88;79.92;98877.11;4054860;86;20136;-85
2022/06/01 06:43:40;;;;;;;;;;;;;;;16.07;79.69;98876.48;4057850;86;20152;-87
2022/06/01 06:49:41;;;;;;;;;;;;;;;16.31;79.35;98882.28;4047861;86;20183;-87
2022/06/01 06:55:42;;;;;;;;;;;;;;;16.45;79.49;98889.02;4052169;86;20363;-86
2022/06/01 07:01:44;;;;;;;;;;;;;;;16.60;78.95;98903.43;4051180;86;20145;-87
2022/06/01 07:07:45;;;;;;;;;;;;;;;16.64;78.80;98902.17;4057243;86;20592;-87
2022/06/01 07:13:47;;;;;;;;;;;;;;;16.62;78.36;98894.89;4054353;86;20124;-86
2022/06/01 07:19:51;;;;;;;;;;;;;;;16.53;78.44;98904.31;4064180;85;20515;-86
2022/06/01 07:25:53;;;;;;;;;;;;;;;16.52;78.27;98897.20;4051503;86;20128;-88
2022/06/01 07:31:54;;;;;;;;;;;;;;;16.64;78.95;98903.56;4074186;86;20123;-87
2022/06/01 07:44:15;;;;;;;;;;;;;;;16.74;78.92;98909.52;4066329;86;20237;-86
2022/06/01 07:50:16;;;;;;;;;;;;;;;16.58;79.41;98909.97;4076292;86;20886;-88
2022/06/01 07:56:17;;;;;;;;;;;;;;;16.52;79.96;98904.11;4069957;86;20521;-88
2022/06/01 08:02:18;;;;;;;;;;;;;;;16.47;80.97;98916.23;4065327;86;20213;-89
2022/06/01 08:08:19;;;;;;;;;;;;;;;16.38;80.36;98927.75;4067432;86;20606;-87
2022/06/01 08:14:21;;;;;;;;;;;;;;;16.34;80.42;98929.00;4076381;86;20600;-89
2022/06/01 08:20:24;;;;;;;;;;;;;;;16.33;80.85;98931.00;4076744;86;20167;-87
2022/06/01 08:26:25;;;;;;;;;;;;;;;16.36;81.48;98933.52;4138362;84;20171;-87
2022/06/01 08:32:26;;;;;;;;;;;;;;;16.42;81.12;98945.67;4102554;85;20167;-87
2022/06/01 08:38:27;;;;;;;;;;;;;;;16.48;82.16;98946.80;4095384;86;20140;-87
2022/06/01 08:44:32;;;;;;;;;;;;;;;16.58;79.59;98942.53;4096583;86;20226;-87
2022/06/01 08:50:36;;;;;;;;;;;;;;;16.57;81.44;98941.57;4099197;86;20148;-87
2022/06/01 08:56:42;;;;;;;;;;;;;;;16.79;79.93;98933.13;4088700;86;20152;-88
2022/06/01 09:02:57;;;;;;;;;;;;;;;16.99;80.39;98934.80;4082552;86;20098;-87
2022/06/01 09:09:05;;;;;;;;;;;;;;;17.28;80.35;98937.11;4104668;85;20656;-88
2022/06/01 09:15:18;;;;;;;;;;;;;;;17.61;79.17;98929.25;4055074;86;20503;-89
2022/06/01 09:27:59;;;;;;;;;;;;;;;18.03;78.04;98928.44;4081806;86;20457;-87
2022/06/01 09:34:15;;;;;;;;;;;;;;;18.92;78.18;98930.29;4096275;86;20569;-88
2022/06/01 09:40:29;;;;;;;;;;;;;;;19.82;77.94;98934.00;4096992;86;20155;-88
2022/06/01 09:46:35;;;;;;;;;;;;;;;20.64;76.26;98926.31;4068107;86;21136;-88
2022/06/01 09:52:40;;;;;;;;;;;;;;;21.29;74.66;98918.47;4092076;86;20134;-89
2022/06/01 10:11:36;;;;;;;;;;;;;;;22.40;70.22;98933.66;4087840;86;20158;-88
2022/06/01 10:17:39;;;;;;;;;;;;;;;22.39;69.86;98927.94;4094408;86;20112;-90
2022/06/01 10:23:50;;;;;;;;;;;;;;;23.12;67.17;98926.46;4091687;86;20153;-87
2022/06/01 10:29:58;;;;;;;;;;;;;;;23.60;68.37;98926.27;4076515;86;20120;-89
2022/06/01 10:36:05;;;;;;;;;;;;;;;23.79;64.44;98927.09;4047189;86;20225;-88
2022/06/01 10:43:16;;;;;;;;;;;;;;;24.27;65.15;98928.97;4038721;86;20874;-89
2022/06/01 10:48:31;;;;;;;;;;;;;;;24.53;63.88;98921.75;4072560;86;20159;-87
2022/06/01 10:54:41;;;;;;;;;;;;;;;25.12;61.80;98918.14;4130324;85;20163;-89
2022/06/01 11:00:46;;;;;;;;;;;;;;;25.39;60.15;98925.64;4124841;84;20190;-89
2022/06/01 11:06:54;;;;;;;;;;;;;;;25.77;59.31;98918.08;4118180;85;20434;-87
2022/06/01 11:13:08;;;;;;;;;;;;;;;26.03;55.64;98923.96;4112830;84;20134;-86
2022/06/01 11:19:13;;;;;;;;;;;;;;;26.28;56.70;98920.62;4128106;85;20119;-88
2022/06/01 11:25:35;;;;;;;;;;;;;;;26.54;53.34;98925.05;4128273;84;20123;-85
2022/06/01 11:31:37;;;;;;;;;;;;;;;26.23;53.39;98919.91;4109767;85;20106;-88
2022/06/01 11:37:42;;;;;;;;;;;;;;;26.74;52.36;98923.75;4131768;85;20392;-87
2022/06/01 11:43:47;;;;;;;;;;;;;;;27.01;52.25;98917.20;4148043;85;20118;-87
2022/06/01 11:50:21;;;;;;;;;;;;;;;27.17;49.35;98916.66;4129028;85;20142;-87
2022/06/01 11:56:25;;;;;;;;;;;;;;;27.67;50.74;98919.42;4104767;86;20204;-87
2022/06/01 12:02:48;;;;;;;;;;;;;;;27.52;50.57;98912.45;4103022;85;20131;-88
2022/06/01 12:08:53;;;;;;;;;;;;;;;27.14;45.39;98904.23;4098938;85;20174;-88
2022/06/01 12:15:01;;;;;;;;;;;;;;;27.10;44.61;98912.08;4095951;85;20144;-87
2022/06/01 12:34:37;;;;;;;;;;;;;;;26.04;45.78;98903.09;3966631;89;20694;-86
2022/06/01 12:40:39;;;;;;;;;;;;;;;25.72;45.69;98902.53;4034482;87;20133;-87
2022/06/01 12:46:45;;;;;;;;;;;;;;;25.31;45.26;98905.59;4039448;87;20730;-87
2022/06/01 12:52:47;;;;;;;;;;;;;;;25.06;42.72;98894.08;4062325;86;20189;-87
2022/06/01 12:58:50;;;;;;;;;;;;;;;24.70;43.99;98887.98;4054812;86;20131;-87
2022/06/01 13:05:06;;;;;;;;;;;;;;;24.48;42.29;98890.99;4053361;86;20662;-86
2022/06/01 13:18:17;;;;;;;;;;;;;;;24.64;42.49;98886.44;4042912;86;20187;-85
2022/06/01 13:24:19;;;;;;;;;;;;;;;24.62;42.54;98879.13;4032256;87;20299;-87
2022/06/01 13:30:20;;;;;;;;;;;;;;;24.60;42.05;98885.81;4087085;86;20115;-86
2022/06/01 13:36:29;;;;;;;;;;;;;;;24.52;41.95;98880.39;4086697;86;20183;-87
2022/06/01 13:42:37;;;;;;;;;;;;;;;24.55;41.93;98878.70;4085719;86;20215;-87
2022/06/01 13:48:41;;;;;;;;;;;;;;;24.70;42.15;98882.39;4087102;86;20512;-85
2022/06/01 13:54:45;;;;;;;;;;;;;;;24.73;42.15;98871.65;4077177;86;20124;-87
2022/06/01 14:00:49;;;;;;;;;;;;;;;24.65;42.63;98885.18;4087803;86;20282;-87
2022/06/01 14:06:55;;;;;;;;;;;;;;;24.71;40.68;98876.97;4085778;86;20142;-86
2022/06/01 14:12:56;;;;;;;;;;;;;;;24.85;40.38;98882.50;4096587;86;20178;-86
2022/06/01 14:19:01;;;;;;;;;;;;;;;24.81;40.43;98878.46;4086817;85;20214;-87
2022/06/01 14:31:30;;;;;;;;;;;;;;;24.81;38.77;98870.06;4068704;86;20170;-86
2022/06/01 14:37:32;;;;;;;;;;;;;;;24.85;40.42;98868.50;4070010;86;20156;-86
2022/06/01 14:43:36;;;;;;;;;;;;;;;24.51;38.60;98869.06;4068720;86;20530;-86
2022/06/01 14:49:37;;;;;;;;;;;;;;;24.40;39.07;98864.58;4064364;86;21007;-86
2022/06/01 14:55:38;;;;;;;;;;;;;;;24.33;39.44;98873.94;4064777;86;20138;-85
2022/06/01 15:01:42;;;;;;;;;;;;;;;24.07;37.43;98872.11;4070092;86;20155;-86
2022/06/01 15:07:44;;;;;;;;;;;;;;;23.85;38.65;98873.52;4070551;86;20151;-87
2022/06/01 15:13:45;;;;;;;;;;;;;;;23.90;39.19;98861.72;4066151;86;20190;-86
2022/06/01 15:19:46;;;;;;;;;;;;;;;23.73;39.08;98859.84;4067980;86;20148;-85
2022/06/01 15:25:47;;;;;;;;;;;;;;;23.67;39.27;98869.31;4050938;86;20193;-86
2022/06/01 15:44:44;;;;;;;;;;;;;;;23.18;39.38;98868.77;4054072;87;20475;-87
2022/06/01 15:51:08;;;;;;;;;;;;;;;23.10;40.03;98864.71;4057195;87;20151;-86
2022/06/01 15:57:17;;;;;;;;;;;;;;;23.07;40.43;98863.45;4058604;87;20207;-87
2022/06/01 16:03:18;;;;;;;;;;;;;;;22.96;41.09;98869.48;4057829;87;20219;-85
2022/06/01 16:09:20;;;;;;;;;;;;;;;22.85;40.85;98873.93;4055325;87;20489;-86
2022/06/01 16:15:21;;;;;;;;;;;;;;;22.76;41.59;98877.48;4058334;87;20119;-87
2022/06/01 16:21:23;;;;;;;;;;;;;;;22.67;42.31;98880.23;4059456;87;20152;-85
2022/06/01 16:27:24;;;;;;;;;;;;;;;22.59;42.55;98871.20;4062426;87;20186;-86
2022/06/01 16:33:31;;;;;;;;;;;;;;;22.55;43.05;98874.76;4044563;87;20196;-87
2022/06/01 16:46:26;;;;;;;;;;;;;;;22.32;42.27;98882.17;3932413;87;20424;-85
2022/06/01 17:06:11;;;;;;;;;;;;;;;21.78;42.88;98902.70;3974827;88;20209;-86
2022/06/01 17:12:14;;;;;;;;;;;;;;;21.57;44.71;98894.45;4046011;86;20171;-85
2022/06/01 17:18:17;;;;;;;;;;;;;;;21.41;44.50;98895.38;4055558;87;20136;-85
2022/06/01 17:24:18;;;;;;;;;;;;;;;21.23;45.11;98896.61;4040293;86;20635;-86
2022/06/01 17:30:41;;;;;;;;;;;;;;;21.05;45.81;98903.95;4027243;88;20403;-85
2022/06/01 17:37:08;;;;;;;;;;;;;;;20.90;45.27;98907.80;3983263;89;20571;-85
2022/06/01 17:43:09;;;;;;;;;;;;;;;20.78;45.26;98914.13;3965354;89;20196;-86
2022/06/01 17:49:40;;;;;;;;;;;;;;;20.73;45.07;98915.30;4048477;88;20207;-86
2022/06/01 17:56:01;;;;;;;;;;;;;;;20.59;45.23;98920.70;3902696;87;20154;-86
2022/06/01 18:02:06;;;;;;;;;;;;;;;20.42;45.34;98913.67;4023054;87;20147;-86
2022/06/01 18:08:37;;;;;;;;;;;;;;;20.29;45.93;98909.28;4018651;87;20174;-85
2022/06/01 18:14:52;;;;;;;;;;;;;;;20.13;46.32;98912.31;4052765;88;20114;-86
2022/06/01 18:21:02;;;;;;;;;;;;;;;19.87;47.37;98916.17;4057100;88;20123;-85
2022/06/01 18:27:16;;;;;;;;;;;;;;;19.88;46.55;98921.13;4035921;86;20167;-86
2022/06/01 18:33:20;;;;;;;;;;;;;;;19.83;47.28;98917.50;4032548;88;20139;-86
2022/06/01 18:39:46;;;;;;;;;;;;;;;19.57;48.10;98919.39;4039856;87;20121;-85
2022/06/01 18:46:12;;;;;;;;;;;;;;;19.35;48.37;98917.59;4065375;86;20426;-86
2022/06/01 18:52:38;;;;;;;;;;;;;;;19.01;49.16;98915.23;4051563;87;20127;-86
2022/06/01 18:58:56;;;;;;;;;;;;;;;18.69;49.68;98926.27;4035971;88;20178;-86
2022/06/01 19:05:03;;;;;;;;;;;;;;;18.46;50.51;98934.09;3979788;88;20213;-86
2022/06/01 19:11:12;;;;;;;;;;;;;;;18.24;51.36;98939.11;3979599;88;20163;-86
2022/06/01 19:17:41;;;;;;;;;;;;;;;18.01;53.18;98948.25;4059830;87;20595;-85
2022/06/01 19:23:51;;;;;;;;;;;;;;;17.65;52.98;98945.20;3973621;88;20127;-86
2022/06/01 19:30:00;;;;;;;;;;;;;;;17.36;53.76;98942.70;4081696;87;20467;-86
2022/06/01 19:49:23;;;;;;;;;;;;;;;16.76;55.28;98946.41;4046981;88;20141;-86
2022/06/01 20:01:56;;;;;;;;;;;;;;;16.44;56.92;98948.81;4073475;87;20518;-86
2022/06/01 20:08:23;;;;;;;;;;;;;;;16.28;58.00;98936.98;3907550;89;20195;-86
2022/06/01 20:14:24;;;;;;;;;;;;;;;16.07;58.14;98949.65;3927228;89;20171;-85
2022/06/01 20:27:40;;;;;;;;;;;;;;;15.84;60.93;98954.25;3790021;91;20756;-85
2022/06/01 20:33:54;;;;;;;;;;;;;;;15.57;60.60;98947.23;3913358;90;20661;-85
2022/06/01 20:40:25;;;;;;;;;;;;;;;15.54;60.74;98939.77;4028296;86;20165;-85
2022/06/01 20:46:53;;;;;;;;;;;;;;;15.53;62.12;98939.59;4031670;87;20164;-86
2022/06/01 20:53:06;;;;;;;;;;;;;;;15.51;63.85;98953.00;4041193;87;20117;-85
2022/06/01 20:59:17;;;;;;;;;;;;;;;15.42;62.99;98959.02;4033250;87;20455;-85
2022/06/01 21:05:51;;;;;;;;;;;;;;;15.23;63.84;98969.19;4059529;87;20162;-85
2022/06/01 21:12:18;;;;;;;;;;;;;;;15.09;64.29;98976.19;4048745;87;20157;-85
2022/06/01 21:18:25;;;;;;;;;;;;;;;14.89;64.39;98969.61;4038774;87;20141;-86
2022/06/01 21:31:24;;;;;;;;;;;;;;;14.52;65.91;98963.17;4054703;87;20113;-85
2022/06/01 21:38:01;;;;;;;;;;;;;;;14.42;66.00;98963.99;3977446;88;20220;-85
2022/06/01 21:44:43;;;;;;;;;;;;;;;14.41;66.31;98961.05;4034947;87;20125;-85
2022/06/01 21:51:01;;;;;;;;;;;;;;;14.47;67.95;98981.48;4052038;86;20167;-85
2022/06/01 21:57:31;;;;;;;;;;;;;;;14.58;67.84;98981.61;4056922;86;20538;-85
2022/06/01 22:03:41;;;;;;;;;;;;;;;14.47;68.46;98977.35;4061829;86;20190;-85
2022/06/01 22:10:15;;;;;;;;;;;;;;;14.38;69.00;98992.12;4046623;87;20171;-85
2022/06/01 22:22:56;;;;;;;;;;;;;;;14.31;69.18;98975.64;4066184;86;20610;-85
2022/06/01 22:42:10;;;;;;;;;;;;;;;13.79;71.21;98988.35;4095295;86;21041;-85
2022/06/01 22:48:30;;;;;;;;;;;;;;;13.91;71.34;98994.80;4096759;86;20254;-85
2022/06/01 23:01:15;;;;;;;;;;;;;;;13.47;70.72;98980.72;4094505;86;20183;-86
